createdAt,value
2019-06-04T00:00:39.883Z,11.30
2019-06-04T00:03:10.469Z,11.30
2019-06-04T00:05:40.998Z,11.40
2019-06-04T00:08:11.633Z,11.40
2019-06-04T00:10:43.070Z,11.40
2019-06-04T00:13:13.714Z,11.40
2019-06-04T00:15:44.142Z,11.40
2019-06-04T00:18:14.567Z,11.30
2019-06-04T00:20:44.998Z,11.40
2019-06-04T00:23:15.524Z,11.40
2019-06-04T00:25:45.956Z,11.30
2019-06-04T00:28:16.423Z,11.30
2019-06-04T00:30:46.906Z,11.30
2019-06-04T00:33:17.352Z,11.30
2019-06-04T00:35:47.906Z,11.40
2019-06-04T00:38:18.397Z,11.30
2019-06-04T00:40:48.819Z,11.30
2019-06-04T00:43:19.252Z,11.30
2019-06-04T00:45:50.004Z,11.30
2019-06-04T00:48:20.408Z,11.30
2019-06-04T00:50:50.839Z,11.30
2019-06-04T00:53:29.966Z,11.20
2019-06-04T01:03:30.239Z,11.00
2019-06-04T01:06:02.047Z,10.80
2019-06-04T01:08:34.372Z,10.80
2019-06-04T01:11:06.011Z,10.70
2019-06-04T01:13:36.861Z,10.70
2019-06-04T01:16:08.358Z,10.60
2019-06-04T02:13:45.538Z,10.60
2019-06-04T02:56:20.122Z,10.60
2019-06-04T02:58:51.723Z,10.20
2019-06-04T03:01:22.252Z,10.30
2019-06-04T03:08:52.147Z,10.30
2019-06-04T03:13:52.499Z,10.10
2019-06-04T03:16:22.971Z,9.90
2019-06-04T03:18:56.284Z,9.90
2019-06-04T03:21:25.363Z,10.00
2019-06-04T03:23:56.878Z,10.20
2019-06-04T03:26:27.340Z,10.40
2019-06-04T03:28:57.769Z,10.50
2019-06-04T03:31:28.216Z,10.60
2019-06-04T03:34:00.122Z,10.70
2019-06-04T03:36:30.791Z,10.80
2019-06-04T03:39:01.247Z,10.80
2019-06-04T03:41:31.750Z,10.80
2019-06-04T03:44:02.235Z,10.80
2019-06-04T03:46:32.691Z,10.80
2019-06-04T03:49:03.177Z,10.80
2019-06-04T03:51:33.656Z,10.80
2019-06-04T03:54:04.084Z,10.80
2019-06-04T03:56:34.522Z,10.80
2019-06-04T03:59:05.159Z,10.90
2019-06-04T04:01:35.779Z,10.90
2019-06-04T04:04:08.274Z,10.90
2019-06-04T04:06:38.438Z,10.80
2019-06-04T04:09:09.219Z,10.70
2019-06-04T04:11:39.861Z,10.70
2019-06-04T04:24:10.026Z,10.70
2019-06-04T04:36:40.734Z,10.70
2019-06-04T04:39:11.261Z,10.90
2019-06-04T04:41:42.715Z,11.00
2019-06-04T04:44:13.838Z,11.10
2019-06-04T04:46:44.899Z,11.20
2019-06-04T04:49:15.424Z,11.20
2019-06-04T04:51:45.854Z,11.30
2019-06-04T04:54:16.280Z,11.30
2019-06-04T04:56:46.710Z,11.40
2019-06-04T04:59:17.437Z,11.40
2019-06-04T05:01:47.866Z,11.40
2019-06-04T05:04:19.690Z,11.50
2019-06-04T05:06:52.731Z,11.60
2019-06-04T05:09:24.716Z,11.70
2019-06-04T05:11:56.568Z,11.80
2019-06-04T05:14:29.226Z,11.90
2019-06-04T05:29:32.086Z,12.00
2019-06-04T05:32:02.514Z,12.50
2019-06-04T05:34:32.939Z,12.60
2019-06-04T05:37:03.396Z,12.70
2019-06-04T05:39:33.900Z,12.70
2019-06-04T05:42:04.335Z,12.80
2019-06-04T05:44:34.853Z,12.90
2019-06-04T05:54:34.409Z,13.00
2019-06-04T06:02:04.461Z,13.60
2019-06-04T06:07:04.855Z,14.20
2019-06-04T06:09:35.578Z,14.70
2019-06-04T06:12:06.272Z,14.70
2019-06-04T06:14:36.691Z,14.70
2019-06-04T06:17:07.182Z,14.80
2019-06-04T06:19:37.758Z,14.90
2019-06-04T06:22:08.226Z,14.90
2019-06-04T06:24:38.714Z,14.90
2019-06-04T06:27:09.131Z,14.90
2019-06-04T06:34:39.356Z,15.00
2019-06-04T06:37:09.823Z,15.60
2019-06-04T06:39:40.278Z,15.80
2019-06-04T06:42:10.784Z,15.90
2019-06-04T06:44:41.441Z,15.90
2019-06-04T06:47:13.411Z,16.00
2019-06-04T06:49:43.904Z,16.00
2019-06-04T06:52:14.690Z,16.00
2019-06-04T06:54:45.288Z,16.10
2019-06-04T06:57:15.758Z,16.10
2019-06-04T06:59:46.347Z,16.00
2019-06-04T07:02:24.476Z,15.90
2019-06-04T07:04:49.924Z,15.90
2019-06-04T07:07:21.338Z,15.90
2019-06-04T07:09:54.385Z,16.10
2019-06-04T07:12:26.466Z,16.20
2019-06-04T07:14:59.643Z,16.20
2019-06-04T07:17:31.284Z,16.30
2019-06-04T07:20:01.725Z,16.50
2019-06-04T07:27:31.925Z,16.70
2019-06-04T07:30:02.555Z,17.40
2019-06-04T07:32:34.243Z,17.40
2019-06-04T07:35:05.159Z,17.50
2019-06-04T07:37:37.404Z,17.30
2019-06-04T07:40:08.443Z,17.20
2019-06-04T07:42:39.285Z,17.30
2019-06-04T07:45:09.894Z,17.30
2019-06-04T07:47:41.666Z,17.30
2019-06-04T07:50:14.313Z,17.40
2019-06-04T07:52:44.341Z,17.60
2019-06-04T07:55:15.018Z,17.80
2019-06-04T08:00:19.002Z,18.30
2019-06-04T08:02:49.525Z,19.60
2019-06-04T08:05:20.163Z,19.30
2019-06-04T08:07:50.802Z,18.80
2019-06-04T08:10:21.323Z,18.50
2019-06-04T08:12:51.738Z,18.50
2019-06-04T08:15:22.179Z,18.60
2019-06-04T08:17:52.629Z,18.60
2019-06-04T08:20:24.156Z,18.70
2019-06-04T08:22:54.574Z,18.60
2019-06-04T08:25:25.165Z,18.40
2019-06-04T08:27:55.635Z,18.40
2019-06-04T08:30:27.083Z,18.40
2019-06-04T08:32:57.828Z,18.40
2019-06-04T08:35:28.353Z,18.50
2019-06-04T08:37:58.992Z,18.60
2019-06-04T08:40:29.531Z,18.70
2019-06-04T08:42:59.935Z,18.60
2019-06-04T08:45:30.362Z,18.50
2019-06-04T08:48:00.903Z,18.20
2019-06-04T08:50:32.398Z,18.10
2019-06-04T08:53:02.990Z,18.10
2019-06-04T08:55:38.508Z,17.90
2019-06-04T08:58:11.345Z,17.70
2019-06-04T09:00:44.716Z,17.60
2019-06-04T09:03:15.727Z,17.60
2019-06-04T09:05:46.337Z,17.40
2019-06-04T09:08:17.083Z,17.40
2019-06-04T09:10:50.807Z,17.60
2019-06-04T09:13:21.671Z,17.50
2019-06-04T09:15:55.924Z,17.50
2019-06-04T09:18:24.663Z,17.30
2019-06-04T09:20:55.110Z,17.20
2019-06-04T09:23:25.632Z,16.90
2019-06-04T09:25:56.354Z,16.80
2019-06-04T09:28:26.927Z,16.70
2019-06-04T09:31:03.063Z,16.70
2019-06-04T09:33:29.504Z,16.90
2019-06-04T09:35:59.914Z,17.40
2019-06-04T09:38:30.432Z,17.90
2019-06-04T09:41:01.375Z,18.30
2019-06-04T09:43:31.918Z,18.20
2019-06-04T09:46:02.810Z,17.80
2019-06-04T09:48:34.191Z,17.40
2019-06-04T09:51:04.733Z,17.00
2019-06-04T09:56:04.845Z,16.60
2019-06-04T09:58:35.284Z,16.30
2019-06-04T10:01:06.624Z,16.30
2019-06-04T10:03:37.634Z,16.20
2019-06-04T10:06:08.276Z,16.20
2019-06-04T10:08:38.808Z,16.20
2019-06-04T10:11:09.612Z,16.30
2019-06-04T10:13:39.996Z,16.50
2019-06-04T10:16:10.433Z,16.80
2019-06-04T10:18:40.748Z,16.80
2019-06-04T10:21:11.182Z,16.50
2019-06-04T10:23:41.609Z,16.30
2019-06-04T10:26:24.175Z,16.30
2019-06-04T10:28:50.020Z,16.10
2019-06-04T10:31:16.644Z,16.00
2019-06-04T10:33:48.222Z,16.10
2019-06-04T10:36:18.755Z,16.20
2019-06-04T10:38:49.184Z,16.60
2019-06-04T10:41:19.614Z,16.90
2019-06-04T10:43:51.401Z,17.50
2019-06-04T10:46:22.004Z,18.10
2019-06-04T10:51:22.861Z,18.70
2019-06-04T10:53:53.703Z,19.30
2019-06-04T10:56:25.345Z,19.50
2019-06-04T10:58:56.231Z,19.20
2019-06-04T11:01:28.863Z,18.60
2019-06-04T11:04:00.579Z,18.40
2019-06-04T11:06:31.215Z,18.30
2019-06-04T11:09:10.249Z,18.70
2019-06-04T11:11:34.604Z,18.80
2019-06-04T11:14:05.439Z,18.60
2019-06-04T11:16:35.928Z,18.20
2019-06-04T11:19:06.807Z,18.20
2019-06-04T11:21:39.735Z,18.30
2019-06-04T11:24:09.358Z,18.50
2019-06-04T11:26:39.791Z,18.60
2019-06-04T11:29:10.214Z,18.90
2019-06-04T11:31:41.668Z,19.20
2019-06-04T11:34:23.513Z,19.40
2019-06-04T11:36:44.471Z,19.40
2019-06-04T11:39:19.353Z,19.80
2019-06-04T11:41:47.331Z,20.30
2019-06-04T11:44:17.791Z,21.10
2019-06-04T11:46:48.231Z,20.80
2019-06-04T11:49:19.363Z,20.90
2019-06-04T11:51:51.173Z,21.90
2019-06-04T11:54:21.818Z,21.50
2019-06-04T11:56:53.322Z,21.70
2019-06-04T11:59:24.244Z,21.90
2019-06-04T12:01:54.673Z,21.30
2019-06-04T12:04:25.166Z,21.20
2019-06-04T12:06:56.764Z,21.40
2019-06-04T12:09:31.011Z,21.00
2019-06-04T12:12:35.148Z,20.60
2019-06-04T12:14:32.029Z,19.90
2019-06-04T12:17:04.321Z,19.80
2019-06-04T12:19:34.819Z,19.40
2019-06-04T12:22:05.258Z,19.40
2019-06-04T12:24:35.672Z,19.30
2019-06-04T12:27:06.076Z,19.30
2019-06-04T12:29:36.536Z,19.00
2019-06-04T12:32:07.068Z,19.10
2019-06-04T12:34:37.493Z,19.40
2019-06-04T12:37:08.225Z,19.70
2019-06-04T12:39:50.333Z,19.80
2019-06-04T12:42:10.727Z,19.90
2019-06-04T12:44:41.147Z,20.20
2019-06-04T12:47:14.746Z,20.70
2019-06-04T12:49:50.193Z,20.70
2019-06-04T12:52:16.217Z,20.90
2019-06-04T12:54:47.045Z,21.30
2019-06-04T12:57:18.008Z,22.80
2019-06-04T12:59:48.640Z,24.80
2019-06-04T13:02:26.856Z,26.20
2019-06-04T13:04:54.511Z,26.60
2019-06-04T13:07:25.637Z,26.10
2019-06-04T13:10:13.229Z,25.00
2019-06-04T13:12:29.840Z,24.70
2019-06-04T13:15:01.253Z,23.70
2019-06-04T13:17:31.871Z,22.90
2019-06-04T13:20:25.832Z,22.30
2019-06-04T13:22:35.243Z,22.20
2019-06-04T13:25:07.993Z,22.10
2019-06-04T13:27:38.946Z,22.30
2019-06-04T13:30:10.449Z,22.00
2019-06-04T13:32:41.070Z,22.20
2019-06-04T13:35:11.690Z,22.30
2019-06-04T13:37:42.138Z,22.40
2019-06-04T13:40:28.831Z,22.20
2019-06-04T13:42:45.029Z,21.70
2019-06-04T13:45:15.860Z,21.90
2019-06-04T13:47:46.290Z,22.10
2019-06-04T13:50:16.711Z,21.90
2019-06-04T13:52:47.141Z,21.30
2019-06-04T13:55:17.575Z,21.20
2019-06-04T13:57:48.001Z,21.00
2019-06-04T14:00:36.232Z,20.90
2019-06-04T14:02:50.800Z,20.50
2019-06-04T14:05:21.279Z,20.40
2019-06-04T14:07:51.780Z,20.30
2019-06-04T14:10:22.229Z,20.00
2019-06-04T14:12:52.766Z,19.90
2019-06-04T14:15:25.824Z,20.30
2019-06-04T14:17:55.923Z,20.50
2019-06-04T14:20:31.947Z,20.50
2019-06-04T14:23:08.048Z,20.50
2019-06-04T14:25:31.812Z,20.50
2019-06-04T14:28:06.354Z,20.50
2019-06-04T14:30:35.428Z,20.50
2019-06-04T14:33:05.990Z,20.60
2019-06-04T14:35:36.581Z,20.50
2019-06-04T14:38:08.335Z,20.40
2019-06-04T14:40:39.089Z,20.60
2019-06-04T14:43:09.863Z,20.90
2019-06-04T14:45:40.654Z,21.30
2019-06-04T14:48:12.038Z,21.50
2019-06-04T14:50:45.101Z,22.10
2019-06-04T14:53:15.020Z,22.70
2019-06-04T14:55:46.678Z,22.90
2019-06-04T14:58:17.185Z,23.00
2019-06-04T15:00:47.609Z,23.00
2019-06-04T15:03:18.047Z,22.60
2019-06-04T15:05:48.482Z,22.40
2019-06-04T15:08:20.744Z,22.40
2019-06-04T15:10:51.006Z,22.30
2019-06-04T15:13:21.481Z,21.70
2019-06-04T15:15:52.233Z,21.40
2019-06-04T15:18:22.867Z,22.00
2019-06-04T15:20:56.805Z,22.90
2019-06-04T15:23:25.400Z,23.10
2019-06-04T15:25:56.093Z,22.60
2019-06-04T15:28:26.520Z,22.20
2019-06-04T15:30:57.965Z,21.90
2019-06-04T15:33:28.392Z,21.50
2019-06-04T15:35:58.823Z,21.10
2019-06-04T15:38:29.293Z,20.70
2019-06-04T15:40:59.787Z,20.60
2019-06-04T15:43:31.126Z,20.60
2019-06-04T15:46:01.555Z,20.70
2019-06-04T15:48:32.146Z,20.80
2019-06-04T15:51:02.816Z,20.80
2019-06-04T15:53:33.231Z,20.80
2019-06-04T15:56:03.688Z,20.70
2019-06-04T15:58:34.096Z,20.70
2019-06-04T16:01:04.625Z,20.90
2019-06-04T16:03:48.900Z,21.00
2019-06-04T16:06:07.424Z,21.10
2019-06-04T16:08:37.842Z,21.30
2019-06-04T16:11:08.325Z,21.50
2019-06-04T16:13:38.814Z,21.90
2019-06-04T16:16:09.455Z,22.20
2019-06-04T16:18:39.866Z,21.90
2019-06-04T16:21:13.371Z,21.70
2019-06-04T16:23:43.967Z,21.60
2019-06-04T16:26:14.442Z,21.30
2019-06-04T16:28:44.838Z,21.10
2019-06-04T16:31:15.281Z,20.90
2019-06-04T16:33:46.016Z,21.00
2019-06-04T16:36:17.781Z,20.80
2019-06-04T16:38:48.434Z,20.90
2019-06-04T16:41:18.830Z,20.90
2019-06-04T16:43:49.248Z,20.80
2019-06-04T16:46:20.427Z,20.80
2019-06-04T16:48:50.966Z,20.80
2019-06-04T16:51:22.657Z,20.70
2019-06-04T16:53:53.424Z,20.70
2019-06-04T16:56:25.272Z,20.80
2019-06-04T16:58:55.754Z,20.80
2019-06-04T17:01:26.602Z,20.60
2019-06-04T17:03:58.303Z,20.40
2019-06-04T17:06:30.683Z,20.20
2019-06-04T17:09:00.811Z,20.20
2019-06-04T17:11:31.496Z,20.10
2019-06-04T17:14:02.253Z,20.00
2019-06-04T17:16:33.412Z,19.80
2019-06-04T17:19:04.130Z,19.70
2019-06-04T17:21:34.590Z,19.50
2019-06-04T17:24:05.723Z,19.50
2019-06-04T17:26:36.642Z,19.50
2019-06-04T17:29:07.077Z,19.50
2019-06-04T17:31:37.513Z,19.40
2019-06-04T17:34:07.933Z,19.10
2019-06-04T17:36:38.358Z,19.10
2019-06-04T17:39:09.301Z,19.10
2019-06-04T17:41:40.079Z,19.30
2019-06-04T17:44:10.564Z,19.50
2019-06-04T17:46:40.989Z,19.70
2019-06-04T17:49:11.429Z,19.70
2019-06-04T17:51:41.947Z,19.40
2019-06-04T17:54:12.428Z,19.20
2019-06-04T17:56:42.893Z,18.90
2019-06-04T17:59:13.320Z,18.80
2019-06-04T18:01:43.756Z,18.60
2019-06-04T18:04:14.181Z,18.50
2019-06-04T18:06:44.597Z,18.30
2019-06-04T18:09:15.035Z,18.10
2019-06-04T18:11:45.735Z,18.00
2019-06-04T18:14:16.266Z,17.80
2019-06-04T18:16:46.798Z,17.80
2019-06-04T18:19:18.169Z,17.60
2019-06-04T18:21:51.315Z,17.70
2019-06-04T18:24:20.882Z,17.70
2019-06-04T18:26:51.348Z,17.40
2019-06-04T18:29:21.851Z,17.40
2019-06-04T18:31:54.818Z,17.40
2019-06-04T18:34:25.262Z,17.40
2019-06-04T18:36:55.672Z,17.40
2019-06-04T18:39:28.163Z,17.30
2019-06-04T18:42:01.635Z,17.30
2019-06-04T18:44:33.188Z,17.20
2019-06-04T18:47:03.731Z,17.20
2019-06-04T18:49:35.091Z,17.20
2019-06-04T18:52:05.709Z,17.30
2019-06-04T18:54:36.127Z,17.30
2019-06-04T18:57:06.623Z,17.30
2019-06-04T18:59:38.209Z,17.20
2019-06-04T19:02:08.875Z,17.00
2019-06-04T19:07:09.502Z,16.80
2019-06-04T19:09:41.229Z,16.50
2019-06-04T19:19:42.586Z,16.40
2019-06-04T19:22:13.378Z,16.30
2019-06-04T19:24:45.114Z,16.20
2019-06-04T19:27:16.343Z,16.30
2019-06-04T19:29:47.951Z,16.20
2019-06-04T19:32:19.920Z,16.20
2019-06-04T19:34:51.643Z,16.10
2019-06-04T19:37:23.247Z,16.20
2019-06-04T19:39:54.193Z,16.20
2019-06-04T19:42:24.833Z,16.10
2019-06-04T19:44:55.332Z,16.10
2019-06-04T19:52:28.417Z,16.00
2019-06-04T19:54:59.309Z,15.90
2019-06-04T20:02:29.090Z,15.90
2019-06-04T20:04:59.549Z,15.60
2019-06-04T20:07:29.988Z,15.50
2019-06-04T20:10:01.575Z,15.40
2019-06-04T20:15:03.743Z,15.30
2019-06-04T20:17:34.528Z,15.20
2019-06-04T20:20:05.578Z,15.10
2019-06-04T20:22:37.814Z,15.20
2019-06-04T20:25:11.783Z,15.20
2019-06-04T20:27:42.905Z,15.20
2019-06-04T20:30:14.284Z,15.20
2019-06-04T20:32:50.715Z,15.20
2019-06-04T20:35:20.023Z,15.20
2019-06-04T20:38:01.254Z,15.10
2019-06-04T20:40:25.835Z,15.10
2019-06-04T20:42:57.562Z,15.00
2019-06-04T20:45:28.967Z,15.10
2019-06-04T20:48:01.464Z,15.10
2019-06-04T20:50:33.798Z,15.10
2019-06-04T20:53:05.937Z,15.10
2019-06-04T20:55:38.137Z,15.00
2019-06-04T20:58:10.314Z,15.00
2019-06-04T21:00:43.214Z,15.00
2019-06-04T21:03:14.790Z,15.00
2019-06-04T21:05:46.853Z,14.90
2019-06-04T21:08:17.583Z,14.80
2019-06-04T21:10:49.129Z,14.70
2019-06-04T21:13:19.611Z,14.60
2019-06-04T21:15:51.261Z,14.50
2019-06-04T21:18:22.874Z,14.40
2019-06-04T21:20:55.323Z,14.30
2019-06-04T21:23:26.054Z,14.20
2019-06-04T21:25:56.540Z,14.10
2019-06-04T21:28:27.076Z,14.10
2019-06-04T21:30:57.622Z,14.10
2019-06-04T21:33:28.036Z,14.00
2019-06-04T21:35:58.457Z,13.90
2019-06-04T21:38:28.887Z,13.90
2019-06-04T21:40:59.304Z,13.80
2019-06-04T21:43:29.722Z,13.80
2019-06-04T21:46:01.447Z,13.70
2019-06-04T21:48:31.949Z,13.60
2019-06-04T21:51:02.554Z,13.50
2019-06-04T21:53:32.984Z,13.50
2019-06-04T21:56:03.400Z,13.40
2019-06-04T22:01:03.540Z,13.20
2019-06-04T22:03:34.012Z,13.10
2019-06-04T22:06:04.495Z,13.00
2019-06-04T22:08:34.921Z,12.90
2019-06-04T22:11:06.427Z,12.80
2019-06-04T22:13:37.006Z,12.80
2019-06-04T22:16:10.962Z,12.80
2019-06-04T22:18:39.850Z,12.80
2019-06-04T22:21:10.342Z,12.90
2019-06-04T22:23:40.761Z,13.00
2019-06-04T22:26:11.178Z,13.00
2019-06-04T22:28:41.639Z,13.10
2019-06-04T22:31:12.135Z,13.10
2019-06-04T22:33:43.866Z,13.10
2019-06-04T22:36:14.474Z,12.90
2019-06-04T22:58:43.153Z,12.80
2019-06-04T23:01:14.594Z,12.10
2019-06-04T23:03:45.021Z,12.00
2019-06-04T23:11:14.674Z,11.90
2019-06-04T23:13:45.101Z,11.80
2019-06-04T23:16:15.570Z,11.80
2019-06-04T23:18:46.103Z,11.70
2019-06-04T23:21:16.584Z,11.60
2019-06-04T23:23:47.014Z,11.50
2019-06-04T23:26:17.648Z,11.50
2019-06-04T23:28:48.061Z,11.40
2019-06-04T23:31:18.500Z,11.40
2019-06-04T23:33:48.914Z,11.40
2019-06-04T23:36:19.357Z,11.40
2019-06-04T23:38:49.844Z,11.30
2019-06-04T23:41:20.311Z,11.20
2019-06-04T23:43:50.736Z,11.30
2019-06-04T23:46:21.163Z,11.20
2019-06-04T23:48:51.592Z,11.20
2019-06-04T23:51:22.019Z,11.10
2019-06-04T23:53:52.434Z,11.10
2019-06-04T23:56:22.872Z,11.10
2019-06-04T23:58:53.289Z,11.10
